sensor_id;sensor_type;location;lat;lon;timestamp;P1;durP1;ratioP1;P2;durP2;ratioP2
36827;SDS011;22766;48.042;11.192;2022-11-15T00:01:25;7.90;;;3.22;;
36827;SDS011;22766;48.042;11.192;2022-11-15T00:04:10;5.03;;;2.90;;
36827;SDS011;22766;48.042;11.192;2022-11-15T00:06:56;5.22;;;2.92;;
36827;SDS011;22766;48.042;11.192;2022-11-15T00:09:41;3.60;;;2.15;;
36827;SDS011;22766;48.042;11.192;2022-11-15T00:12:30;6.10;;;2.75;;
36827;SDS011;22766;48.042;11.192;2022-11-15T00:15:15;5.25;;;2.60;;
36827;SDS011;22766;48.042;11.192;2022-11-15T00:18:00;4.45;;;2.40;;
36827;SDS011;22766;48.042;11.192;2022-11-15T00:20:46;4.15;;;2.70;;
36827;SDS011;22766;48.042;11.192;2022-11-15T00:23:32;4.97;;;2.75;;
36827;SDS011;22766;48.042;11.192;2022-11-15T00:26:18;6.63;;;2.90;;
36827;SDS011;22766;48.042;11.192;2022-11-15T00:29:03;4.22;;;2.47;;
36827;SDS011;22766;48.042;11.192;2022-11-15T00:31:48;7.25;;;3.58;;
36827;SDS011;22766;48.042;11.192;2022-11-15T00:34:34;9.43;;;4.50;;
36827;SDS011;22766;48.042;11.192;2022-11-15T00:37:19;6.07;;;3.35;;
36827;SDS011;22766;48.042;11.192;2022-11-15T00:40:05;6.65;;;3.38;;
36827;SDS011;22766;48.042;11.192;2022-11-15T00:42:50;6.47;;;3.33;;
36827;SDS011;22766;48.042;11.192;2022-11-15T00:45:36;5.13;;;2.90;;
36827;SDS011;22766;48.042;11.192;2022-11-15T00:48:21;5.85;;;2.95;;
36827;SDS011;22766;48.042;11.192;2022-11-15T00:51:07;6.43;;;3.13;;
36827;SDS011;22766;48.042;11.192;2022-11-15T00:53:52;4.53;;;2.55;;
36827;SDS011;22766;48.042;11.192;2022-11-15T00:56:37;3.83;;;2.50;;
36827;SDS011;22766;48.042;11.192;2022-11-15T00:59:22;5.82;;;2.92;;
36827;SDS011;22766;48.042;11.192;2022-11-15T01:02:07;6.35;;;2.88;;
36827;SDS011;22766;48.042;11.192;2022-11-15T01:04:53;5.22;;;2.92;;
36827;SDS011;22766;48.042;11.192;2022-11-15T01:07:38;7.15;;;3.10;;
36827;SDS011;22766;48.042;11.192;2022-11-15T01:10:23;5.90;;;2.72;;
36827;SDS011;22766;48.042;11.192;2022-11-15T01:13:10;4.97;;;2.65;;
36827;SDS011;22766;48.042;11.192;2022-11-15T01:15:55;4.72;;;3.00;;
36827;SDS011;22766;48.042;11.192;2022-11-15T01:18:40;3.55;;;2.45;;
36827;SDS011;22766;48.042;11.192;2022-11-15T01:21:26;4.13;;;2.17;;
36827;SDS011;22766;48.042;11.192;2022-11-15T01:24:16;2.58;;;1.98;;
36827;SDS011;22766;48.042;11.192;2022-11-15T01:27:01;4.93;;;2.45;;
36827;SDS011;22766;48.042;11.192;2022-11-15T01:29:47;6.57;;;2.95;;
36827;SDS011;22766;48.042;11.192;2022-11-15T01:32:32;5.13;;;3.05;;
36827;SDS011;22766;48.042;11.192;2022-11-15T01:35:17;5.57;;;2.55;;
36827;SDS011;22766;48.042;11.192;2022-11-15T01:38:03;3.90;;;1.77;;
36827;SDS011;22766;48.042;11.192;2022-11-15T01:40:48;2.58;;;1.92;;
36827;SDS011;22766;48.042;11.192;2022-11-15T01:43:35;2.58;;;2.13;;
36827;SDS011;22766;48.042;11.192;2022-11-15T01:49:10;4.07;;;2.33;;
36827;SDS011;22766;48.042;11.192;2022-11-15T01:51:59;3.33;;;2.10;;
36827;SDS011;22766;48.042;11.192;2022-11-15T01:54:47;3.05;;;1.90;;
36827;SDS011;22766;48.042;11.192;2022-11-15T01:57:35;7.00;;;2.72;;
36827;SDS011;22766;48.042;11.192;2022-11-15T02:00:21;3.22;;;2.25;;
36827;SDS011;22766;48.042;11.192;2022-11-15T02:03:06;3.80;;;2.25;;
36827;SDS011;22766;48.042;11.192;2022-11-15T02:05:51;3.88;;;2.25;;
36827;SDS011;22766;48.042;11.192;2022-11-15T02:08:37;5.70;;;2.90;;
36827;SDS011;22766;48.042;11.192;2022-11-15T02:11:23;8.00;;;2.53;;
36827;SDS011;22766;48.042;11.192;2022-11-15T02:14:08;5.85;;;2.08;;
36827;SDS011;22766;48.042;11.192;2022-11-15T02:20:05;2.53;;;2.00;;
36827;SDS011;22766;48.042;11.192;2022-11-15T02:41:43;3.17;;;1.75;;
36827;SDS011;22766;48.042;11.192;2022-11-15T02:44:35;3.10;;;2.03;;
36827;SDS011;22766;48.042;11.192;2022-11-15T02:47:24;3.97;;;1.95;;
36827;SDS011;22766;48.042;11.192;2022-11-15T02:50:13;3.13;;;1.48;;
36827;SDS011;22766;48.042;11.192;2022-11-15T02:53:03;2.60;;;1.75;;
36827;SDS011;22766;48.042;11.192;2022-11-15T02:55:48;2.53;;;1.60;;
36827;SDS011;22766;48.042;11.192;2022-11-15T03:05:09;2.70;;;1.70;;
36827;SDS011;22766;48.042;11.192;2022-11-15T03:08:10;2.65;;;1.77;;
36827;SDS011;22766;48.042;11.192;2022-11-15T03:19:57;2.63;;;1.75;;
36827;SDS011;22766;48.042;11.192;2022-11-15T03:22:45;2.53;;;1.83;;
36827;SDS011;22766;48.042;11.192;2022-11-15T03:25:33;3.50;;;1.70;;
36827;SDS011;22766;48.042;11.192;2022-11-15T03:28:29;3.13;;;1.85;;
36827;SDS011;22766;48.042;11.192;2022-11-15T03:31:36;3.00;;;1.80;;
36827;SDS011;22766;48.042;11.192;2022-11-15T03:34:47;2.75;;;1.42;;
36827;SDS011;22766;48.042;11.192;2022-11-15T03:37:50;2.40;;;1.67;;
36827;SDS011;22766;48.042;11.192;2022-11-15T03:41:20;2.83;;;1.73;;
36827;SDS011;22766;48.042;11.192;2022-11-15T03:46:37;2.85;;;1.75;;
36827;SDS011;22766;48.042;11.192;2022-11-15T03:49:31;2.33;;;1.70;;
36827;SDS011;22766;48.042;11.192;2022-11-15T03:52:19;3.88;;;1.83;;
36827;SDS011;22766;48.042;11.192;2022-11-15T03:55:07;2.03;;;1.63;;
36827;SDS011;22766;48.042;11.192;2022-11-15T03:57:56;3.08;;;1.60;;
36827;SDS011;22766;48.042;11.192;2022-11-15T04:00:43;2.63;;;1.60;;
36827;SDS011;22766;48.042;11.192;2022-11-15T04:03:29;3.28;;;1.77;;
36827;SDS011;22766;48.042;11.192;2022-11-15T04:06:14;3.72;;;1.70;;
36827;SDS011;22766;48.042;11.192;2022-11-15T04:09:00;3.47;;;1.95;;
36827;SDS011;22766;48.042;11.192;2022-11-15T04:11:45;4.88;;;2.10;;
36827;SDS011;22766;48.042;11.192;2022-11-15T04:14:30;2.20;;;1.48;;
36827;SDS011;22766;48.042;11.192;2022-11-15T04:17:15;3.60;;;1.95;;
36827;SDS011;22766;48.042;11.192;2022-11-15T04:20:01;3.50;;;1.52;;
36827;SDS011;22766;48.042;11.192;2022-11-15T04:23:13;3.30;;;1.55;;
36827;SDS011;22766;48.042;11.192;2022-11-15T04:26:21;2.42;;;1.50;;
36827;SDS011;22766;48.042;11.192;2022-11-15T04:29:07;2.50;;;1.63;;
36827;SDS011;22766;48.042;11.192;2022-11-15T04:32:11;2.88;;;1.52;;
36827;SDS011;22766;48.042;11.192;2022-11-15T04:34:56;2.28;;;1.40;;
36827;SDS011;22766;48.042;11.192;2022-11-15T04:37:42;1.90;;;1.30;;
36827;SDS011;22766;48.042;11.192;2022-11-15T04:40:33;2.45;;;1.30;;
36827;SDS011;22766;48.042;11.192;2022-11-15T04:43:19;2.83;;;1.95;;
36827;SDS011;22766;48.042;11.192;2022-11-15T04:46:04;2.08;;;1.38;;
36827;SDS011;22766;48.042;11.192;2022-11-15T04:48:49;1.83;;;1.15;;
36827;SDS011;22766;48.042;11.192;2022-11-15T04:51:42;3.63;;;1.75;;
36827;SDS011;22766;48.042;11.192;2022-11-15T04:54:27;2.45;;;1.52;;
36827;SDS011;22766;48.042;11.192;2022-11-15T04:57:13;5.40;;;1.73;;
36827;SDS011;22766;48.042;11.192;2022-11-15T04:59:58;2.53;;;1.77;;
36827;SDS011;22766;48.042;11.192;2022-11-15T05:02:44;2.10;;;1.20;;
36827;SDS011;22766;48.042;11.192;2022-11-15T05:05:47;2.40;;;1.60;;
36827;SDS011;22766;48.042;11.192;2022-11-15T05:08:33;15.07;;;5.53;;
36827;SDS011;22766;48.042;11.192;2022-11-15T05:11:18;8.55;;;3.50;;
36827;SDS011;22766;48.042;11.192;2022-11-15T05:14:04;9.05;;;3.55;;
36827;SDS011;22766;48.042;11.192;2022-11-15T05:16:49;5.78;;;2.60;;
36827;SDS011;22766;48.042;11.192;2022-11-15T05:19:34;4.07;;;2.08;;
36827;SDS011;22766;48.042;11.192;2022-11-15T05:22:20;3.17;;;1.98;;
36827;SDS011;22766;48.042;11.192;2022-11-15T05:25:06;2.30;;;1.58;;
36827;SDS011;22766;48.042;11.192;2022-11-15T05:27:52;3.63;;;1.80;;
36827;SDS011;22766;48.042;11.192;2022-11-15T05:30:37;3.95;;;2.10;;
36827;SDS011;22766;48.042;11.192;2022-11-15T05:33:22;4.72;;;2.25;;
36827;SDS011;22766;48.042;11.192;2022-11-15T05:39:18;2.58;;;1.65;;
36827;SDS011;22766;48.042;11.192;2022-11-15T05:42:11;7.38;;;1.77;;
36827;SDS011;22766;48.042;11.192;2022-11-15T05:44:58;4.25;;;2.58;;
36827;SDS011;22766;48.042;11.192;2022-11-15T05:47:44;5.05;;;2.80;;
36827;SDS011;22766;48.042;11.192;2022-11-15T05:50:31;9.02;;;3.20;;
36827;SDS011;22766;48.042;11.192;2022-11-15T05:53:18;6.55;;;2.70;;
36827;SDS011;22766;48.042;11.192;2022-11-15T05:56:08;6.35;;;2.20;;
36827;SDS011;22766;48.042;11.192;2022-11-15T05:58:54;4.88;;;2.63;;
36827;SDS011;22766;48.042;11.192;2022-11-15T06:01:43;8.43;;;2.63;;
36827;SDS011;22766;48.042;11.192;2022-11-15T06:04:29;3.78;;;1.90;;
36827;SDS011;22766;48.042;11.192;2022-11-15T06:07:14;3.15;;;2.10;;
36827;SDS011;22766;48.042;11.192;2022-11-15T06:09:59;3.90;;;1.85;;
36827;SDS011;22766;48.042;11.192;2022-11-15T06:12:45;4.32;;;2.00;;
36827;SDS011;22766;48.042;11.192;2022-11-15T06:15:31;4.05;;;2.35;;
36827;SDS011;22766;48.042;11.192;2022-11-15T06:18:18;6.40;;;2.28;;
36827;SDS011;22766;48.042;11.192;2022-11-15T06:21:03;2.95;;;2.08;;
36827;SDS011;22766;48.042;11.192;2022-11-15T06:23:49;2.88;;;1.30;;
36827;SDS011;22766;48.042;11.192;2022-11-15T06:26:34;2.65;;;1.83;;
36827;SDS011;22766;48.042;11.192;2022-11-15T06:29:19;3.53;;;1.77;;
36827;SDS011;22766;48.042;11.192;2022-11-15T06:32:05;2.75;;;1.55;;
36827;SDS011;22766;48.042;11.192;2022-11-15T06:34:50;3.80;;;1.70;;
36827;SDS011;22766;48.042;11.192;2022-11-15T06:37:35;2.60;;;1.40;;
36827;SDS011;22766;48.042;11.192;2022-11-15T06:40:21;3.00;;;1.60;;
36827;SDS011;22766;48.042;11.192;2022-11-15T06:43:06;2.30;;;1.35;;
36827;SDS011;22766;48.042;11.192;2022-11-15T06:45:52;3.78;;;1.92;;
36827;SDS011;22766;48.042;11.192;2022-11-15T06:48:37;2.45;;;1.55;;
36827;SDS011;22766;48.042;11.192;2022-11-15T06:51:23;3.92;;;2.05;;
36827;SDS011;22766;48.042;11.192;2022-11-15T06:54:08;4.03;;;2.20;;
36827;SDS011;22766;48.042;11.192;2022-11-15T06:56:53;6.93;;;2.65;;
36827;SDS011;22766;48.042;11.192;2022-11-15T06:59:38;3.00;;;2.28;;
36827;SDS011;22766;48.042;11.192;2022-11-15T07:02:25;3.70;;;2.25;;
36827;SDS011;22766;48.042;11.192;2022-11-15T07:05:10;3.40;;;2.30;;
36827;SDS011;22766;48.042;11.192;2022-11-15T07:07:56;5.68;;;2.70;;
36827;SDS011;22766;48.042;11.192;2022-11-15T07:10:42;2.45;;;1.60;;
36827;SDS011;22766;48.042;11.192;2022-11-15T07:13:28;3.40;;;2.10;;
36827;SDS011;22766;48.042;11.192;2022-11-15T07:16:15;5.75;;;2.25;;
36827;SDS011;22766;48.042;11.192;2022-11-15T07:19:00;4.93;;;2.53;;
36827;SDS011;22766;48.042;11.192;2022-11-15T07:21:45;4.05;;;2.58;;
36827;SDS011;22766;48.042;11.192;2022-11-15T07:24:31;3.58;;;2.22;;
36827;SDS011;22766;48.042;11.192;2022-11-15T07:27:16;2.97;;;1.85;;
36827;SDS011;22766;48.042;11.192;2022-11-15T07:30:02;2.88;;;2.15;;
36827;SDS011;22766;48.042;11.192;2022-11-15T07:32:51;3.35;;;1.80;;
36827;SDS011;22766;48.042;11.192;2022-11-15T07:35:40;3.92;;;2.30;;
36827;SDS011;22766;48.042;11.192;2022-11-15T07:38:27;3.50;;;1.95;;
36827;SDS011;22766;48.042;11.192;2022-11-15T07:41:14;2.75;;;2.00;;
36827;SDS011;22766;48.042;11.192;2022-11-15T07:43:59;3.10;;;1.65;;
36827;SDS011;22766;48.042;11.192;2022-11-15T07:46:45;3.05;;;1.83;;
36827;SDS011;22766;48.042;11.192;2022-11-15T07:49:30;5.32;;;2.08;;
36827;SDS011;22766;48.042;11.192;2022-11-15T07:52:15;5.70;;;1.63;;
36827;SDS011;22766;48.042;11.192;2022-11-15T07:55:01;2.38;;;1.50;;
36827;SDS011;22766;48.042;11.192;2022-11-15T07:57:46;2.22;;;1.30;;
36827;SDS011;22766;48.042;11.192;2022-11-15T08:00:31;3.03;;;1.38;;
36827;SDS011;22766;48.042;11.192;2022-11-15T08:03:17;1.95;;;1.33;;
36827;SDS011;22766;48.042;11.192;2022-11-15T08:06:03;1.48;;;1.02;;
36827;SDS011;22766;48.042;11.192;2022-11-15T08:08:48;1.65;;;1.20;;
36827;SDS011;22766;48.042;11.192;2022-11-15T08:11:34;3.00;;;1.27;;
36827;SDS011;22766;48.042;11.192;2022-11-15T08:14:19;1.90;;;1.17;;
36827;SDS011;22766;48.042;11.192;2022-11-15T08:17:06;3.35;;;1.77;;
36827;SDS011;22766;48.042;11.192;2022-11-15T08:19:51;3.22;;;1.52;;
36827;SDS011;22766;48.042;11.192;2022-11-15T08:22:37;2.60;;;1.58;;
36827;SDS011;22766;48.042;11.192;2022-11-15T08:25:25;2.22;;;1.30;;
36827;SDS011;22766;48.042;11.192;2022-11-15T08:28:11;3.15;;;1.30;;
36827;SDS011;22766;48.042;11.192;2022-11-15T08:31:04;1.88;;;1.20;;
36827;SDS011;22766;48.042;11.192;2022-11-15T08:33:50;2.33;;;1.30;;
36827;SDS011;22766;48.042;11.192;2022-11-15T08:36:35;1.77;;;1.33;;
36827;SDS011;22766;48.042;11.192;2022-11-15T08:39:29;2.45;;;1.30;;
36827;SDS011;22766;48.042;11.192;2022-11-15T08:42:15;2.17;;;1.38;;
36827;SDS011;22766;48.042;11.192;2022-11-15T08:45:04;2.15;;;1.27;;
36827;SDS011;22766;48.042;11.192;2022-11-15T08:47:49;2.28;;;1.17;;
36827;SDS011;22766;48.042;11.192;2022-11-15T08:50:38;2.00;;;1.08;;
36827;SDS011;22766;48.042;11.192;2022-11-15T08:53:23;3.13;;;0.70;;
36827;SDS011;22766;48.042;11.192;2022-11-15T08:56:10;1.95;;;1.10;;
36827;SDS011;22766;48.042;11.192;2022-11-15T08:58:56;1.70;;;1.05;;
36827;SDS011;22766;48.042;11.192;2022-11-15T09:01:41;1.50;;;1.02;;
36827;SDS011;22766;48.042;11.192;2022-11-15T09:04:26;1.15;;;0.90;;
36827;SDS011;22766;48.042;11.192;2022-11-15T09:07:11;2.33;;;1.08;;
36827;SDS011;22766;48.042;11.192;2022-11-15T09:09:58;1.75;;;1.35;;
36827;SDS011;22766;48.042;11.192;2022-11-15T09:12:43;2.03;;;1.23;;
36827;SDS011;22766;48.042;11.192;2022-11-15T09:15:29;2.20;;;1.35;;
36827;SDS011;22766;48.042;11.192;2022-11-15T09:18:14;2.17;;;1.40;;
36827;SDS011;22766;48.042;11.192;2022-11-15T09:21:00;2.28;;;0.95;;
36827;SDS011;22766;48.042;11.192;2022-11-15T09:23:45;1.83;;;1.08;;
36827;SDS011;22766;48.042;11.192;2022-11-15T09:26:30;1.25;;;0.82;;
36827;SDS011;22766;48.042;11.192;2022-11-15T09:29:15;1.20;;;0.85;;
36827;SDS011;22766;48.042;11.192;2022-11-15T09:32:00;2.00;;;1.00;;
36827;SDS011;22766;48.042;11.192;2022-11-15T09:34:46;1.33;;;0.93;;
36827;SDS011;22766;48.042;11.192;2022-11-15T09:37:32;1.38;;;0.80;;
36827;SDS011;22766;48.042;11.192;2022-11-15T09:40:17;2.88;;;1.02;;
36827;SDS011;22766;48.042;11.192;2022-11-15T09:49:18;0.98;;;0.85;;
36827;SDS011;22766;48.042;11.192;2022-11-15T09:52:11;1.55;;;0.80;;
36827;SDS011;22766;48.042;11.192;2022-11-15T09:54:38;3.60;;;1.30;;
36827;SDS011;22766;48.042;11.192;2022-11-15T10:03:02;1.77;;;1.08;;
36827;SDS011;22766;48.042;11.192;2022-11-15T10:05:30;1.13;;;0.85;;
36827;SDS011;22766;48.042;11.192;2022-11-15T10:10:39;1.17;;;0.80;;
36827;SDS011;22766;48.042;11.192;2022-11-15T10:13:16;1.08;;;0.80;;
36827;SDS011;22766;48.042;11.192;2022-11-15T10:15:49;1.02;;;0.80;;
36827;SDS011;22766;48.042;11.192;2022-11-15T10:21:29;1.45;;;1.00;;
36827;SDS011;22766;48.042;11.192;2022-11-15T10:24:10;1.98;;;0.85;;
36827;SDS011;22766;48.042;11.192;2022-11-15T10:26:38;1.92;;;0.90;;
36827;SDS011;22766;48.042;11.192;2022-11-15T10:29:11;1.90;;;1.20;;
36827;SDS011;22766;48.042;11.192;2022-11-15T10:31:44;1.45;;;0.88;;
36827;SDS011;22766;48.042;11.192;2022-11-15T10:34:18;1.67;;;1.20;;
36827;SDS011;22766;48.042;11.192;2022-11-15T10:36:56;2.70;;;0.93;;
36827;SDS011;22766;48.042;11.192;2022-11-15T10:39:24;2.00;;;1.05;;
36827;SDS011;22766;48.042;11.192;2022-11-15T10:41:51;2.88;;;1.20;;
36827;SDS011;22766;48.042;11.192;2022-11-15T10:44:20;2.15;;;1.02;;
36827;SDS011;22766;48.042;11.192;2022-11-15T10:47:04;2.97;;;0.82;;
36827;SDS011;22766;48.042;11.192;2022-11-15T10:49:33;2.53;;;0.75;;
36827;SDS011;22766;48.042;11.192;2022-11-15T10:52:18;2.53;;;1.20;;
36827;SDS011;22766;48.042;11.192;2022-11-15T10:57:32;1.58;;;1.10;;
36827;SDS011;22766;48.042;11.192;2022-11-15T11:02:35;4.40;;;1.63;;
36827;SDS011;22766;48.042;11.192;2022-11-15T11:10:39;1.45;;;0.80;;
36827;SDS011;22766;48.042;11.192;2022-11-15T11:13:28;1.38;;;0.70;;
36827;SDS011;22766;48.042;11.192;2022-11-15T11:38:42;1.17;;;0.70;;
36827;SDS011;22766;48.042;11.192;2022-11-15T11:49:51;0.80;;;0.50;;
36827;SDS011;22766;48.042;11.192;2022-11-15T11:52:33;0.85;;;0.57;;
36827;SDS011;22766;48.042;11.192;2022-11-15T11:58:04;2.67;;;0.60;;
36827;SDS011;22766;48.042;11.192;2022-11-15T12:00:40;1.77;;;0.57;;
36827;SDS011;22766;48.042;11.192;2022-11-15T12:06:02;2.13;;;0.50;;
36827;SDS011;22766;48.042;11.192;2022-11-15T12:14:07;0.50;;;0.30;;
36827;SDS011;22766;48.042;11.192;2022-11-15T12:16:43;1.67;;;0.50;;
36827;SDS011;22766;48.042;11.192;2022-11-15T12:19:09;0.70;;;0.45;;
36827;SDS011;22766;48.042;11.192;2022-11-15T12:21:41;1.52;;;0.60;;
36827;SDS011;22766;48.042;11.192;2022-11-15T12:24:14;1.00;;;0.40;;
36827;SDS011;22766;48.042;11.192;2022-11-15T12:26:54;0.40;;;0.30;;
36827;SDS011;22766;48.042;11.192;2022-11-15T12:29:52;1.13;;;0.40;;
36827;SDS011;22766;48.042;11.192;2022-11-15T12:34:53;1.23;;;0.60;;
36827;SDS011;22766;48.042;11.192;2022-11-15T12:44:57;2.05;;;1.05;;
36827;SDS011;22766;48.042;11.192;2022-11-15T12:47:25;0.98;;;0.52;;
36827;SDS011;22766;48.042;11.192;2022-11-15T12:49:53;2.53;;;1.00;;
36827;SDS011;22766;48.042;11.192;2022-11-15T12:52:22;1.80;;;0.73;;
36827;SDS011;22766;48.042;11.192;2022-11-15T12:54:50;1.50;;;0.82;;
36827;SDS011;22766;48.042;11.192;2022-11-15T12:59:58;2.95;;;1.30;;
36827;SDS011;22766;48.042;11.192;2022-11-15T13:02:37;2.05;;;0.80;;
36827;SDS011;22766;48.042;11.192;2022-11-15T13:17:44;6.03;;;1.13;;
36827;SDS011;22766;48.042;11.192;2022-11-15T13:36:06;3.83;;;1.30;;
36827;SDS011;22766;48.042;11.192;2022-11-15T13:38:41;2.60;;;1.20;;
36827;SDS011;22766;48.042;11.192;2022-11-15T13:41:14;1.90;;;1.08;;
36827;SDS011;22766;48.042;11.192;2022-11-15T13:43:47;3.17;;;1.27;;
36827;SDS011;22766;48.042;11.192;2022-11-15T13:46:22;5.53;;;1.08;;
36827;SDS011;22766;48.042;11.192;2022-11-15T13:48:55;4.95;;;0.95;;
36827;SDS011;22766;48.042;11.192;2022-11-15T13:54:02;3.53;;;1.10;;
36827;SDS011;22766;48.042;11.192;2022-11-15T13:56:35;2.28;;;1.13;;
36827;SDS011;22766;48.042;11.192;2022-11-15T13:59:17;1.77;;;0.73;;
36827;SDS011;22766;48.042;11.192;2022-11-15T14:01:48;0.70;;;0.70;;
36827;SDS011;22766;48.042;11.192;2022-11-15T14:04:18;1.50;;;0.80;;
36827;SDS011;22766;48.042;11.192;2022-11-15T14:06:49;1.10;;;0.68;;
36827;SDS011;22766;48.042;11.192;2022-11-15T14:09:35;2.63;;;0.88;;
36827;SDS011;22766;48.042;11.192;2022-11-15T14:12:20;2.88;;;0.80;;
36827;SDS011;22766;48.042;11.192;2022-11-15T14:14:50;2.42;;;0.57;;
36827;SDS011;22766;48.042;11.192;2022-11-15T14:17:32;2.40;;;0.70;;
36827;SDS011;22766;48.042;11.192;2022-11-15T14:19:59;1.88;;;1.00;;
36827;SDS011;22766;48.042;11.192;2022-11-15T14:22:29;2.03;;;0.80;;
36827;SDS011;22766;48.042;11.192;2022-11-15T14:28:32;2.58;;;1.02;;
36827;SDS011;22766;48.042;11.192;2022-11-15T14:30:55;2.70;;;1.00;;
36827;SDS011;22766;48.042;11.192;2022-11-15T14:33:33;3.15;;;1.00;;
36827;SDS011;22766;48.042;11.192;2022-11-15T14:36:05;7.60;;;1.42;;
36827;SDS011;22766;48.042;11.192;2022-11-15T14:38:37;2.83;;;1.25;;
36827;SDS011;22766;48.042;11.192;2022-11-15T14:41:04;3.05;;;1.23;;
36827;SDS011;22766;48.042;11.192;2022-11-15T14:43:31;2.78;;;1.00;;
36827;SDS011;22766;48.042;11.192;2022-11-15T14:45:58;2.70;;;1.27;;
36827;SDS011;22766;48.042;11.192;2022-11-15T14:48:25;2.15;;;0.85;;
36827;SDS011;22766;48.042;11.192;2022-11-15T14:50:52;1.77;;;1.13;;
36827;SDS011;22766;48.042;11.192;2022-11-15T14:53:18;2.80;;;1.08;;
36827;SDS011;22766;48.042;11.192;2022-11-15T14:55:48;2.10;;;0.90;;
36827;SDS011;22766;48.042;11.192;2022-11-15T14:58:15;2.60;;;1.15;;
36827;SDS011;22766;48.042;11.192;2022-11-15T15:00:41;2.97;;;1.13;;
36827;SDS011;22766;48.042;11.192;2022-11-15T15:03:08;1.70;;;1.08;;
36827;SDS011;22766;48.042;11.192;2022-11-15T15:05:39;1.80;;;1.02;;
36827;SDS011;22766;48.042;11.192;2022-11-15T15:08:07;2.60;;;1.20;;
36827;SDS011;22766;48.042;11.192;2022-11-15T15:10:37;4.38;;;1.42;;
36827;SDS011;22766;48.042;11.192;2022-11-15T15:13:11;5.55;;;1.40;;
36827;SDS011;22766;48.042;11.192;2022-11-15T15:15:39;2.60;;;1.60;;
36827;SDS011;22766;48.042;11.192;2022-11-15T15:18:05;2.92;;;1.10;;
36827;SDS011;22766;48.042;11.192;2022-11-15T15:20:34;2.22;;;1.00;;
36827;SDS011;22766;48.042;11.192;2022-11-15T15:23:04;2.70;;;1.23;;
36827;SDS011;22766;48.042;11.192;2022-11-15T15:25:32;2.17;;;1.27;;
36827;SDS011;22766;48.042;11.192;2022-11-15T15:28:01;1.85;;;1.20;;
36827;SDS011;22766;48.042;11.192;2022-11-15T15:30:29;1.50;;;1.08;;
36827;SDS011;22766;48.042;11.192;2022-11-15T15:32:56;2.85;;;1.35;;
36827;SDS011;22766;48.042;11.192;2022-11-15T15:35:23;4.63;;;1.50;;
36827;SDS011;22766;48.042;11.192;2022-11-15T15:37:52;5.55;;;1.83;;
36827;SDS011;22766;48.042;11.192;2022-11-15T15:40:21;4.35;;;1.58;;
36827;SDS011;22766;48.042;11.192;2022-11-15T15:42:49;4.03;;;1.63;;
36827;SDS011;22766;48.042;11.192;2022-11-15T15:45:16;3.08;;;1.63;;
36827;SDS011;22766;48.042;11.192;2022-11-15T15:47:45;3.00;;;1.20;;
36827;SDS011;22766;48.042;11.192;2022-11-15T15:52:54;2.67;;;1.60;;
36827;SDS011;22766;48.042;11.192;2022-11-15T15:55:23;2.97;;;1.35;;
36827;SDS011;22766;48.042;11.192;2022-11-15T15:57:51;3.47;;;1.83;;
36827;SDS011;22766;48.042;11.192;2022-11-15T16:00:21;3.50;;;1.40;;
36827;SDS011;22766;48.042;11.192;2022-11-15T16:02:52;3.72;;;1.77;;
36827;SDS011;22766;48.042;11.192;2022-11-15T16:05:20;2.90;;;1.63;;
36827;SDS011;22766;48.042;11.192;2022-11-15T16:07:47;4.97;;;1.63;;
36827;SDS011;22766;48.042;11.192;2022-11-15T16:12:49;7.15;;;1.73;;
36827;SDS011;22766;48.042;11.192;2022-11-15T16:15:16;4.15;;;1.75;;
36827;SDS011;22766;48.042;11.192;2022-11-15T16:17:45;4.20;;;2.03;;
36827;SDS011;22766;48.042;11.192;2022-11-15T16:22:59;4.22;;;1.73;;
36827;SDS011;22766;48.042;11.192;2022-11-15T16:25:36;5.68;;;1.70;;
36827;SDS011;22766;48.042;11.192;2022-11-15T16:28:16;2.97;;;1.67;;
36827;SDS011;22766;48.042;11.192;2022-11-15T16:30:43;7.90;;;3.88;;
36827;SDS011;22766;48.042;11.192;2022-11-15T16:33:10;8.35;;;3.72;;
36827;SDS011;22766;48.042;11.192;2022-11-15T16:35:37;7.43;;;3.10;;
36827;SDS011;22766;48.042;11.192;2022-11-15T16:38:03;8.20;;;3.85;;
36827;SDS011;22766;48.042;11.192;2022-11-15T16:40:33;7.70;;;3.78;;
36827;SDS011;22766;48.042;11.192;2022-11-15T16:43:01;10.85;;;5.28;;
36827;SDS011;22766;48.042;11.192;2022-11-15T16:45:29;9.70;;;3.88;;
36827;SDS011;22766;48.042;11.192;2022-11-15T16:47:57;5.70;;;2.75;;
36827;SDS011;22766;48.042;11.192;2022-11-15T16:50:27;6.60;;;3.38;;
36827;SDS011;22766;48.042;11.192;2022-11-15T16:52:56;11.23;;;3.10;;
36827;SDS011;22766;48.042;11.192;2022-11-15T16:55:25;10.32;;;3.50;;
36827;SDS011;22766;48.042;11.192;2022-11-15T16:57:53;7.68;;;3.40;;
36827;SDS011;22766;48.042;11.192;2022-11-15T17:00:23;6.43;;;3.08;;
36827;SDS011;22766;48.042;11.192;2022-11-15T17:02:51;9.30;;;3.45;;
36827;SDS011;22766;48.042;11.192;2022-11-15T17:05:19;6.93;;;3.72;;
36827;SDS011;22766;48.042;11.192;2022-11-15T17:07:48;5.55;;;3.47;;
36827;SDS011;22766;48.042;11.192;2022-11-15T17:10:17;10.23;;;3.45;;
36827;SDS011;22766;48.042;11.192;2022-11-15T17:12:44;8.48;;;3.50;;
36827;SDS011;22766;48.042;11.192;2022-11-15T17:15:11;7.35;;;4.03;;
36827;SDS011;22766;48.042;11.192;2022-11-15T17:17:39;6.22;;;3.40;;
36827;SDS011;22766;48.042;11.192;2022-11-15T17:20:06;7.70;;;3.60;;
36827;SDS011;22766;48.042;11.192;2022-11-15T17:22:39;8.50;;;4.25;;
36827;SDS011;22766;48.042;11.192;2022-11-15T17:25:06;5.40;;;3.25;;
36827;SDS011;22766;48.042;11.192;2022-11-15T17:27:32;9.95;;;5.63;;
36827;SDS011;22766;48.042;11.192;2022-11-15T17:29:59;9.07;;;4.00;;
36827;SDS011;22766;48.042;11.192;2022-11-15T17:32:26;10.63;;;4.35;;
36827;SDS011;22766;48.042;11.192;2022-11-15T17:34:52;9.57;;;4.70;;
36827;SDS011;22766;48.042;11.192;2022-11-15T17:37:19;12.38;;;5.85;;
36827;SDS011;22766;48.042;11.192;2022-11-15T17:39:45;9.55;;;4.65;;
36827;SDS011;22766;48.042;11.192;2022-11-15T17:42:12;10.55;;;3.70;;
36827;SDS011;22766;48.042;11.192;2022-11-15T17:44:39;8.75;;;3.85;;
36827;SDS011;22766;48.042;11.192;2022-11-15T17:47:05;11.02;;;3.65;;
36827;SDS011;22766;48.042;11.192;2022-11-15T17:49:33;6.45;;;3.75;;
36827;SDS011;22766;48.042;11.192;2022-11-15T17:52:04;9.10;;;4.32;;
36827;SDS011;22766;48.042;11.192;2022-11-15T17:54:31;8.55;;;4.10;;
36827;SDS011;22766;48.042;11.192;2022-11-15T17:56:57;8.65;;;4.40;;
36827;SDS011;22766;48.042;11.192;2022-11-15T17:59:24;7.90;;;3.55;;
36827;SDS011;22766;48.042;11.192;2022-11-15T18:01:51;7.07;;;3.42;;
36827;SDS011;22766;48.042;11.192;2022-11-15T18:04:19;6.45;;;3.42;;
36827;SDS011;22766;48.042;11.192;2022-11-15T18:06:46;9.93;;;4.60;;
36827;SDS011;22766;48.042;11.192;2022-11-15T18:09:16;9.30;;;3.90;;
36827;SDS011;22766;48.042;11.192;2022-11-15T18:11:42;7.32;;;3.80;;
36827;SDS011;22766;48.042;11.192;2022-11-15T18:14:12;8.32;;;3.65;;
36827;SDS011;22766;48.042;11.192;2022-11-15T18:16:40;7.78;;;3.90;;
36827;SDS011;22766;48.042;11.192;2022-11-15T18:19:07;7.40;;;3.70;;
36827;SDS011;22766;48.042;11.192;2022-11-15T18:21:39;8.67;;;3.87;;
36827;SDS011;22766;48.042;11.192;2022-11-15T18:24:33;6.72;;;3.97;;
36827;SDS011;22766;48.042;11.192;2022-11-15T18:27:02;8.48;;;4.22;;
36827;SDS011;22766;48.042;11.192;2022-11-15T18:29:30;7.80;;;3.65;;
36827;SDS011;22766;48.042;11.192;2022-11-15T18:31:58;10.48;;;3.67;;
36827;SDS011;22766;48.042;11.192;2022-11-15T18:34:26;8.95;;;4.07;;
36827;SDS011;22766;48.042;11.192;2022-11-15T18:36:57;9.63;;;4.03;;
36827;SDS011;22766;48.042;11.192;2022-11-15T18:39:24;8.57;;;4.65;;